Terminal Aerodrome Forecast
Issued by NWS

Home | Current Version | Previous Version | Graphics & Text | Print | Product List | Glossary On
Versions: 1 2 3 4 5 6 7 8 9 10 11 12 13 14 15 16 17 18 19 20 21 22 23 24 25 26 27 28 29 30
000
FTUS43 KGRB 191100
TAFAUW
TAF
KAUW 191126Z 1912/2012 19004KT 4SM BR SCT005 OVC007
      TEMPO 1912/1914 1SM BR VV005
     FM191400 26005KT 6SM BR SCT009 BKN018
      TEMPO 1914/1916 3SM BR BKN009
     FM191800 29006KT P6SM BKN030
      TEMPO 1919/1923 2SM SHRA
     FM200300 32003KT 3SM BR SCT005 BKN012
     FM200600 00000KT 1SM BR OVC005=

USA.gov is the U.S. government's official web portal to all federal, state and local government web resources and services.